ADDS METAR Data INFO
IDs: Format: Raw Decoded Include TAF

Data at: 2334 UTC 18 Feb 2018

KE11 182315Z AUTO 19011G16KT 10SM SCT070 BKN090 24/11 A2981 RMK AO2 T02380112
KE11 182255Z AUTO 23016G19KT 10SM BKN090 26/08 A2980 RMK AO2 T02640076
KE11 182235Z AUTO 23015G20KT 10SM SCT070 BKN090 26/08 A2981 RMK AO2 T02620076
KE11 182215Z AUTO 24013G22KT 10SM CLR 26/07 A2981 RMK AO2 T02570073
KE11 182155Z AUTO 25012G28KT 10SM SCT065 SCT100 26/08 A2982 RMK AO2 T02590075
KE11 182135Z AUTO 22012G21KT 10SM SCT065 BKN100 26/08 A2983 RMK AO2 T02590078
KE11 182115Z AUTO 23019G24KT 10SM CLR 26/08 A2984 RMK AO2 T02550077
KE11 182055Z AUTO 22015G24KT 10SM CLR 25/08 A2985 RMK AO2 T02510081
KE11 182035Z AUTO 22018G22KT 10SM CLR 25/08 A2987 RMK AO2 T02480083
KE11 182015Z AUTO 22015G24KT 10SM CLR 24/08 A2988 RMK AO2 T02440079
KE11 181955Z AUTO 23019G24KT 10SM CLR 24/08 A2990 RMK AO2 T02380075
KE11 181935Z AUTO 20014G21KT 10SM CLR 24/07 A2991 RMK AO2 T02380073
KE11 181915Z AUTO 22015G22KT 10SM CLR 24/08 A2993 RMK AO2 T02370075
KE11 181855Z AUTO 22017G22KT 10SM CLR 23/08 A2994 RMK AO2 T02280079
KE11 181835Z AUTO 21015G22KT 10SM CLR 22/08 A2996 RMK AO2 T02190082
KE11 181815Z AUTO 21014G21KT 10SM CLR 21/08 A2997 RMK AO2 T02110083
KE11 181755Z AUTO 21015G19KT 10SM CLR 21/09 A2998 RMK AO2 T02120092 10212 20035
KE11 181735Z AUTO 22016KT 10SM CLR 21/09 A2999 RMK AO2 T02050089
KE11 181715Z AUTO 21009G19KT 10SM CLR 19/09 A3000 RMK AO2 T01900092
KE11 181655Z AUTO 21016G19KT 10SM CLR 18/09 A3000 RMK AO2 T01750090
KE11 181635Z AUTO 21015G19KT 10SM CLR 17/09 A3001 RMK AO2 T01670085
KE11 181615Z AUTO 21006KT 10SM SCT110 15/06 A3002 RMK AO2 T01450064
KE11 181555Z AUTO 19007KT 10SM BKN110 12/05 A3003 RMK AO2 T01230046
KE11 181535Z AUTO 19004KT 10SM SCT110 10/02 A3004 RMK AO2 T00980019
KE11 181515Z AUTO 00000KT 10SM CLR 08/01 A3004 RMK AO2 T00750005
KE11 181455Z AUTO 00000KT 10SM CLR 07/00 A3004 RMK AO2 T00670000
KE11 181435Z AUTO 00000KT 10SM SCT009 06/00 A3004 RMK AO2 LTG DSNT SE T00611004
KE11 181415Z AUTO 00000KT 10SM OVC007 06/M01 A3003 RMK AO2 T00561007
KE11 181355Z AUTO 00000KT 10SM OVC007 05/M01 A3003 RMK AO2 T00511011
KE11 181335Z AUTO 00000KT 10SM BKN007 04/M01 A3003 RMK AO2 T00391015
KE11 181315Z AUTO 00000KT 10SM CLR 04/M02 A3004 RMK AO2 T00351020
KE11 181255Z AUTO 00000KT 10SM CLR 04/M02 A3004 RMK AO2 T00401020
KE11 181235Z AUTO 00000KT 10SM CLR 04/M02 A3004 RMK AO2 T00431021
KE11 181215Z AUTO 00000KT 10SM CLR 05/M02 A3005 RMK AO2 T00451020
KE11 181155Z AUTO 11003KT 10SM CLR 05/M02 A3005 RMK AO2 T00471021 10047 20028
KE11 181135Z AUTO 12003KT 10SM CLR 04/M02 A3005 RMK AO2 T00441022
KE11 181115Z AUTO 00000KT 10SM CLR 05/M02 A3007 RMK AO2 T00451025
KE11 181055Z AUTO 00000KT 10SM CLR 04/M03 A3007 RMK AO2 T00421028
KE11 181035Z AUTO 00000KT 10SM CLR 04/M03 A3007 RMK AO2 T00401027
KE11 181015Z AUTO 01003KT 10SM CLR 04/M03 A3008 RMK AO2 T00401030
KE11 180955Z AUTO 00000KT 10SM CLR 04/M03 A3008 RMK AO2 T00361033
KE11 180935Z AUTO 09003KT 10SM CLR 04/M03 A3009 RMK AO2 T00351034
KE11 180915Z AUTO 00000KT 10SM CLR 03/M03 A3010 RMK AO2 T00321029
KE11 180855Z AUTO 00000KT 10SM CLR 04/M03 A3012 RMK AO2 T00371035
KE11 180835Z AUTO 07003KT 10SM CLR 03/M03 A3012 RMK AO2 T00291031
KE11 180815Z AUTO 00000KT 10SM CLR 03/M03 A3014 RMK AO2 T00311032
KE11 180755Z AUTO 00000KT 10SM CLR 03/M03 A3014 RMK AO2 T00321029
KE11 180735Z AUTO 02003KT 10SM CLR 04/M03 A3014 RMK AO2 T00391031
KE11 180715Z AUTO 00000KT 10SM CLR 04/M03 A3014 RMK AO2 T00411034
KE11 180655Z AUTO 00000KT 10SM CLR 04/M03 A3015 RMK AO2 T00411030
KE11 180635Z AUTO 00000KT 10SM CLR 04/M03 A3015 RMK AO2 T00401030
KE11 180615Z AUTO 09003KT 10SM CLR 04/M03 A3015 RMK AO2 T00371031
KE11 180555Z AUTO 07004KT 10SM CLR 04/M03 A3016 RMK AO2 T00351033 10158 20035
KE11 180535Z AUTO 08003KT 10SM CLR 04/M03 A3017 RMK AO2 T00431029
KE11 180515Z AUTO 07003KT 10SM CLR 04/M03 A3018 RMK AO2 T00431030
KE11 180455Z AUTO 00000KT 10SM CLR 05/M03 A3018 RMK AO2 T00471029 401900037
KE11 180435Z AUTO 07003KT 10SM CLR 05/M03 A3019 RMK AO2 T00501028
KE11 180415Z AUTO 08003KT 10SM CLR 06/M03 A3019 RMK AO2 T00571030
KE11 180355Z AUTO 07005KT 10SM CLR 06/M03 A3019 RMK AO2 T00611027
KE11 180335Z AUTO 08004KT 10SM CLR 06/M02 A3019 RMK AO2 T00631024
KE11 180315Z AUTO 10004KT 10SM CLR 07/M03 A3020 RMK AO2 T00671026
KE11 180255Z AUTO 09005KT 10SM CLR 07/M03 A3020 RMK AO2 T00731026
KE11 180235Z AUTO 08005KT 10SM CLR 09/M03 A3019 RMK AO2 T00851027
KE11 180215Z AUTO 09007KT 10SM CLR 09/M03 A3019 RMK AO2 T00921027
KE11 180155Z AUTO 07007KT 10SM CLR 10/M03 A3018 RMK AO2 T00951027
KE11 180135Z AUTO 07008KT 10SM CLR 10/M03 A3018 RMK AO2 T01041027
KE11 180115Z AUTO 06009KT 10SM CLR 11/M01 A3017 RMK AO2 T01101013
KE11 180055Z AUTO 05009KT 10SM CLR 12/00 A3017 RMK AO2 T01241001
KE11 180035Z AUTO 04009KT 10SM CLR 14/02 A3016 RMK AO2 T01350015
KE11 180015Z AUTO 04008KT 10SM CLR 14/02 A3016 RMK AO2 T01440016
KE11 172355Z AUTO 05012KT 10SM CLR 16/02 A3015 RMK AO2 T01600018 10190 20149
KE11 172335Z AUTO 04011KT 10SM CLR 17/01 A3014 RMK AO2 T01650012
KE11 172315Z AUTO 03009KT 10SM CLR 17/01 A3014 RMK AO2 T01690007
KE11 172255Z AUTO 03009KT 10SM CLR 18/00 A3014 RMK AO2 T01770002
KE11 172235Z AUTO 02008KT 10SM CLR 18/00 A3014 RMK AO2 T01800002
KE11 172215Z AUTO 36007KT 10SM CLR 19/00 A3013 RMK AO2 T01850004
KE11 172155Z AUTO 03005KT 10SM CLR 18/01 A3013 RMK AO2 T01830005
KE11 172135Z AUTO 32005KT 10SM CLR 19/01 A3013 RMK AO2 T01900005
KE11 172115Z AUTO 34006KT 310V020 10SM CLR 19/01 A3013 RMK AO2 T01880009
KE11 172055Z AUTO 03006KT 10SM CLR 18/01 A3012 RMK AO2 T01820007
KE11 172035Z AUTO 01007KT 10SM CLR 18/00 A3014 RMK AO2 T01760003
KE11 172015Z AUTO 33010KT 10SM CLR 18/01 A3014 RMK AO2 T01750012
KE11 171955Z AUTO 33008KT 10SM CLR 17/02 A3014 RMK AO2 T01700021
KE11 171935Z AUTO 34011G14KT 10SM CLR 18/03 A3014 RMK AO2 T01840030
KE11 171915Z AUTO 36011G17KT 10SM CLR 18/03 A3016 RMK AO2 T01820031
KE11 171855Z AUTO 31011KT 10SM CLR 18/05 A3016 RMK AO2 T01750045
KE11 171835Z AUTO 32011G17KT 10SM CLR 17/04 A3016 RMK AO2 T01670039
KE11 171820Z AUTO 31010KT 10SM CLR 16/04 A3016 RMK AO2 T01620035
KE11 171755Z AUTO 29008KT 10SM CLR 15/05 A3017 RMK AO2 T01470046 10147 20037
KE11 171735Z AUTO 25009KT 10SM CLR 13/05 A3016 RMK AO2 T01320050
KE11 171715Z AUTO 25007KT 10SM CLR 12/04 A3017 RMK AO2 T01230044
KE11 171655Z AUTO 28009KT 10SM CLR 11/04 A3017 RMK AO2 T01110040
KE11 171635Z AUTO 27009KT 10SM CLR 10/04 A3018 RMK AO2 T00980039
KE11 171615Z AUTO 27010KT 10SM CLR 09/04 A3017 RMK AO2 T00910037
KE11 171555Z AUTO 27009KT 10SM CLR 08/04 A3015 RMK AO2 T00820036
KE11 171535Z AUTO 26011KT 10SM CLR 07/04 A3014 RMK AO2 T00740037
KE11 171515Z AUTO 26009KT 10SM CLR 07/04 A3012 RMK AO2 T00680035
KE11 171455Z AUTO 28011KT 10SM CLR 07/03 A3011 RMK AO2 T00650032
KE11 171435Z AUTO 27008KT 10SM CLR 06/03 A3009 RMK AO2 T00590033
KE11 171415Z AUTO 26011KT 10SM CLR 05/04 A3008 RMK AO2 T00520035
KE11 171355Z AUTO 24010KT 10SM CLR 05/04 A3008 RMK AO2 T00450036
KE11 171335Z AUTO 24007KT 10SM CLR 04/03 A3009 RMK AO2 T00420030
KE11 171315Z AUTO 24008KT 10SM CLR 04/03 A3008 RMK AO2 T00410030
KE11 171255Z AUTO 24007KT 10SM CLR 04/03 A3007 RMK AO2 T00430027
KE11 171235Z AUTO 26007KT 10SM CLR 04/02 A3008 RMK AO2 T00430020
KE11 171215Z AUTO 26006KT 10SM CLR 04/02 A3008 RMK AO2 T00370022
KE11 171155Z AUTO 29007KT 10SM CLR 05/02 A3008 RMK AO2 60002 70003 T00450020 10055 20042
KE11 171135Z AUTO 24007KT 10SM CLR 04/03 A3006 RMK AO2 T00420031